sensor_id;sensor_type;location;lat;lon;timestamp;P1;durP1;ratioP1;P2;durP2;ratioP2
70667;SDS011;58242;51.250;-1.118;2023-07-22T00:02:22;1.70;;;1.60;;
70667;SDS011;58242;51.250;-1.118;2023-07-22T00:04:48;1.80;;;1.70;;
70667;SDS011;58242;51.250;-1.118;2023-07-22T00:07:14;2.00;;;1.90;;
70667;SDS011;58242;51.250;-1.118;2023-07-22T00:09:41;1.70;;;1.60;;
70667;SDS011;58242;51.250;-1.118;2023-07-22T00:12:07;1.60;;;1.60;;
70667;SDS011;58242;51.250;-1.118;2023-07-22T00:14:32;1.70;;;1.60;;
70667;SDS011;58242;51.250;-1.118;2023-07-22T00:16:58;1.50;;;1.50;;
70667;SDS011;58242;51.250;-1.118;2023-07-22T00:19:23;1.80;;;1.70;;
70667;SDS011;58242;51.250;-1.118;2023-07-22T00:21:48;1.73;;;1.63;;
70667;SDS011;58242;51.250;-1.118;2023-07-22T00:24:14;1.77;;;1.67;;
70667;SDS011;58242;51.250;-1.118;2023-07-22T00:26:39;2.35;;;1.80;;
70667;SDS011;58242;51.250;-1.118;2023-07-22T00:29:05;1.58;;;1.58;;
70667;SDS011;58242;51.250;-1.118;2023-07-22T00:31:30;1.63;;;1.63;;
70667;SDS011;58242;51.250;-1.118;2023-07-22T00:33:56;1.63;;;1.63;;
70667;SDS011;58242;51.250;-1.118;2023-07-22T00:36:21;1.60;;;1.50;;
70667;SDS011;58242;51.250;-1.118;2023-07-22T00:38:46;1.80;;;1.70;;
70667;SDS011;58242;51.250;-1.118;2023-07-22T00:41:12;2.25;;;1.70;;
70667;SDS011;58242;51.250;-1.118;2023-07-22T00:43:37;1.80;;;1.80;;
70667;SDS011;58242;51.250;-1.118;2023-07-22T00:46:03;1.95;;;1.85;;
70667;SDS011;58242;51.250;-1.118;2023-07-22T00:48:29;1.67;;;1.58;;
70667;SDS011;58242;51.250;-1.118;2023-07-22T00:50:54;1.50;;;1.50;;
70667;SDS011;58242;51.250;-1.118;2023-07-22T00:53:20;1.70;;;1.60;;
70667;SDS011;58242;51.250;-1.118;2023-07-22T00:55:45;1.50;;;1.50;;
70667;SDS011;58242;51.250;-1.118;2023-07-22T00:58:11;1.63;;;1.50;;
70667;SDS011;58242;51.250;-1.118;2023-07-22T01:00:36;1.55;;;1.45;;
70667;SDS011;58242;51.250;-1.118;2023-07-22T01:03:02;1.92;;;1.80;;
70667;SDS011;58242;51.250;-1.118;2023-07-22T01:05:28;1.90;;;1.80;;
70667;SDS011;58242;51.250;-1.118;2023-07-22T01:07:54;1.70;;;1.60;;
70667;SDS011;58242;51.250;-1.118;2023-07-22T01:10:19;2.17;;;1.70;;
70667;SDS011;58242;51.250;-1.118;2023-07-22T01:12:45;1.80;;;1.70;;
70667;SDS011;58242;51.250;-1.118;2023-07-22T01:15:10;1.70;;;1.60;;
70667;SDS011;58242;51.250;-1.118;2023-07-22T01:17:37;1.30;;;1.30;;
70667;SDS011;58242;51.250;-1.118;2023-07-22T01:20:03;1.70;;;1.60;;
70667;SDS011;58242;51.250;-1.118;2023-07-22T01:22:29;1.60;;;1.50;;
70667;SDS011;58242;51.250;-1.118;2023-07-22T01:24:56;1.65;;;1.55;;
70667;SDS011;58242;51.250;-1.118;2023-07-22T01:27:23;1.77;;;1.70;;
70667;SDS011;58242;51.250;-1.118;2023-07-22T01:29:51;1.70;;;1.60;;
70667;SDS011;58242;51.250;-1.118;2023-07-22T01:32:17;1.70;;;1.67;;
70667;SDS011;58242;51.250;-1.118;2023-07-22T01:34:42;1.92;;;1.75;;
70667;SDS011;58242;51.250;-1.118;2023-07-22T01:37:08;1.67;;;1.58;;
70667;SDS011;58242;51.250;-1.118;2023-07-22T01:39:34;1.70;;;1.60;;
70667;SDS011;58242;51.250;-1.118;2023-07-22T01:42:00;1.70;;;1.60;;
70667;SDS011;58242;51.250;-1.118;2023-07-22T01:44:25;1.58;;;1.48;;
70667;SDS011;58242;51.250;-1.118;2023-07-22T01:46:51;1.42;;;1.42;;
70667;SDS011;58242;51.250;-1.118;2023-07-22T01:49:16;1.67;;;1.60;;
70667;SDS011;58242;51.250;-1.118;2023-07-22T01:51:41;1.55;;;1.52;;
70667;SDS011;58242;51.250;-1.118;2023-07-22T01:54:07;1.45;;;1.38;;
70667;SDS011;58242;51.250;-1.118;2023-07-22T01:56:34;2.10;;;1.60;;
70667;SDS011;58242;51.250;-1.118;2023-07-22T01:58:59;1.60;;;1.60;;
70667;SDS011;58242;51.250;-1.118;2023-07-22T02:01:24;1.65;;;1.55;;
70667;SDS011;58242;51.250;-1.118;2023-07-22T02:03:49;1.45;;;1.40;;
70667;SDS011;58242;51.250;-1.118;2023-07-22T02:06:15;1.77;;;1.67;;
70667;SDS011;58242;51.250;-1.118;2023-07-22T02:08:40;1.55;;;1.50;;
70667;SDS011;58242;51.250;-1.118;2023-07-22T02:11:06;1.63;;;1.52;;
70667;SDS011;58242;51.250;-1.118;2023-07-22T02:13:33;1.40;;;1.40;;
70667;SDS011;58242;51.250;-1.118;2023-07-22T02:15:59;1.88;;;1.77;;
70667;SDS011;58242;51.250;-1.118;2023-07-22T02:18:26;2.17;;;1.90;;
70667;SDS011;58242;51.250;-1.118;2023-07-22T02:20:52;1.50;;;1.50;;
70667;SDS011;58242;51.250;-1.118;2023-07-22T02:23:18;1.60;;;1.50;;
70667;SDS011;58242;51.250;-1.118;2023-07-22T02:25:43;2.08;;;1.98;;
70667;SDS011;58242;51.250;-1.118;2023-07-22T02:28:09;1.98;;;1.80;;
70667;SDS011;58242;51.250;-1.118;2023-07-22T02:30:35;1.90;;;1.80;;
70667;SDS011;58242;51.250;-1.118;2023-07-22T02:33:05;2.30;;;2.08;;
70667;SDS011;58242;51.250;-1.118;2023-07-22T02:35:31;2.13;;;2.03;;
70667;SDS011;58242;51.250;-1.118;2023-07-22T02:37:56;1.60;;;1.50;;
70667;SDS011;58242;51.250;-1.118;2023-07-22T02:40:21;1.45;;;1.45;;
70667;SDS011;58242;51.250;-1.118;2023-07-22T02:42:47;2.00;;;1.90;;
70667;SDS011;58242;51.250;-1.118;2023-07-22T02:45:12;1.80;;;1.70;;
70667;SDS011;58242;51.250;-1.118;2023-07-22T02:47:37;2.00;;;1.88;;
70667;SDS011;58242;51.250;-1.118;2023-07-22T02:50:04;1.60;;;1.50;;
70667;SDS011;58242;51.250;-1.118;2023-07-22T02:52:30;1.65;;;1.60;;
70667;SDS011;58242;51.250;-1.118;2023-07-22T02:55:06;1.70;;;1.60;;
70667;SDS011;58242;51.250;-1.118;2023-07-22T02:57:33;1.50;;;1.50;;
70667;SDS011;58242;51.250;-1.118;2023-07-22T02:59:59;1.88;;;1.77;;
70667;SDS011;58242;51.250;-1.118;2023-07-22T03:02:24;1.60;;;1.50;;
70667;SDS011;58242;51.250;-1.118;2023-07-22T03:04:50;1.70;;;1.60;;
70667;SDS011;58242;51.250;-1.118;2023-07-22T03:07:15;1.73;;;1.63;;
70667;SDS011;58242;51.250;-1.118;2023-07-22T03:09:40;1.88;;;1.70;;
70667;SDS011;58242;51.250;-1.118;2023-07-22T03:12:06;1.60;;;1.50;;
70667;SDS011;58242;51.250;-1.118;2023-07-22T03:14:32;1.52;;;1.40;;
70667;SDS011;58242;51.250;-1.118;2023-07-22T03:17:01;1.85;;;1.75;;
70667;SDS011;58242;51.250;-1.118;2023-07-22T03:19:27;3.08;;;1.73;;
70667;SDS011;58242;51.250;-1.118;2023-07-22T03:21:52;1.58;;;1.40;;
70667;SDS011;58242;51.250;-1.118;2023-07-22T03:24:18;2.40;;;1.63;;
70667;SDS011;58242;51.250;-1.118;2023-07-22T03:26:45;2.40;;;1.75;;
70667;SDS011;58242;51.250;-1.118;2023-07-22T03:29:10;1.65;;;1.63;;
70667;SDS011;58242;51.250;-1.118;2023-07-22T03:31:35;1.60;;;1.50;;
70667;SDS011;58242;51.250;-1.118;2023-07-22T03:34:00;1.60;;;1.50;;
70667;SDS011;58242;51.250;-1.118;2023-07-22T03:36:26;1.55;;;1.50;;
70667;SDS011;58242;51.250;-1.118;2023-07-22T03:38:51;1.40;;;1.40;;
70667;SDS011;58242;51.250;-1.118;2023-07-22T03:41:17;1.85;;;1.75;;
70667;SDS011;58242;51.250;-1.118;2023-07-22T03:43:42;1.80;;;1.70;;
70667;SDS011;58242;51.250;-1.118;2023-07-22T03:46:08;1.55;;;1.50;;
70667;SDS011;58242;51.250;-1.118;2023-07-22T03:48:33;1.50;;;1.40;;
70667;SDS011;58242;51.250;-1.118;2023-07-22T03:50:59;1.50;;;1.50;;
70667;SDS011;58242;51.250;-1.118;2023-07-22T03:53:25;1.80;;;1.70;;
70667;SDS011;58242;51.250;-1.118;2023-07-22T03:55:50;1.40;;;1.40;;
70667;SDS011;58242;51.250;-1.118;2023-07-22T03:58:15;1.70;;;1.60;;
70667;SDS011;58242;51.250;-1.118;2023-07-22T04:00:41;2.97;;;1.60;;
70667;SDS011;58242;51.250;-1.118;2023-07-22T04:03:06;1.73;;;1.63;;
70667;SDS011;58242;51.250;-1.118;2023-07-22T04:05:31;1.52;;;1.50;;
70667;SDS011;58242;51.250;-1.118;2023-07-22T04:07:57;1.42;;;1.42;;
70667;SDS011;58242;51.250;-1.118;2023-07-22T04:10:22;1.40;;;1.40;;
70667;SDS011;58242;51.250;-1.118;2023-07-22T04:12:48;1.33;;;1.33;;
70667;SDS011;58242;51.250;-1.118;2023-07-22T04:15:13;1.70;;;1.60;;
70667;SDS011;58242;51.250;-1.118;2023-07-22T04:17:40;1.48;;;1.40;;
70667;SDS011;58242;51.250;-1.118;2023-07-22T04:20:05;1.40;;;1.40;;
70667;SDS011;58242;51.250;-1.118;2023-07-22T04:22:33;1.33;;;1.33;;
70667;SDS011;58242;51.250;-1.118;2023-07-22T04:24:58;1.40;;;1.40;;
70667;SDS011;58242;51.250;-1.118;2023-07-22T04:27:25;1.60;;;1.50;;
70667;SDS011;58242;51.250;-1.118;2023-07-22T04:29:51;1.38;;;1.38;;
70667;SDS011;58242;51.250;-1.118;2023-07-22T04:32:17;1.65;;;1.55;;
70667;SDS011;58242;51.250;-1.118;2023-07-22T04:34:42;1.52;;;1.52;;
70667;SDS011;58242;51.250;-1.118;2023-07-22T04:37:07;1.40;;;1.40;;
70667;SDS011;58242;51.250;-1.118;2023-07-22T04:39:33;1.30;;;1.30;;
70667;SDS011;58242;51.250;-1.118;2023-07-22T04:41:59;1.50;;;1.42;;
70667;SDS011;58242;51.250;-1.118;2023-07-22T04:44:24;1.60;;;1.50;;
70667;SDS011;58242;51.250;-1.118;2023-07-22T04:46:50;1.35;;;1.35;;
70667;SDS011;58242;51.250;-1.118;2023-07-22T04:49:15;1.60;;;1.50;;
70667;SDS011;58242;51.250;-1.118;2023-07-22T04:51:44;1.55;;;1.55;;
70667;SDS011;58242;51.250;-1.118;2023-07-22T04:54:10;1.70;;;1.63;;
70667;SDS011;58242;51.250;-1.118;2023-07-22T04:56:35;1.52;;;1.52;;
70667;SDS011;58242;51.250;-1.118;2023-07-22T04:59:01;1.40;;;1.40;;
70667;SDS011;58242;51.250;-1.118;2023-07-22T05:01:26;1.70;;;1.60;;
70667;SDS011;58242;51.250;-1.118;2023-07-22T05:03:51;1.38;;;1.25;;
70667;SDS011;58242;51.250;-1.118;2023-07-22T05:06:17;1.60;;;1.55;;
70667;SDS011;58242;51.250;-1.118;2023-07-22T05:08:43;1.75;;;1.50;;
70667;SDS011;58242;51.250;-1.118;2023-07-22T05:11:08;1.30;;;1.30;;
70667;SDS011;58242;51.250;-1.118;2023-07-22T05:13:33;2.08;;;1.55;;
70667;SDS011;58242;51.250;-1.118;2023-07-22T05:15:58;1.30;;;1.30;;
70667;SDS011;58242;51.250;-1.118;2023-07-22T05:18:24;1.50;;;1.40;;
70667;SDS011;58242;51.250;-1.118;2023-07-22T05:20:49;2.00;;;1.55;;
70667;SDS011;58242;51.250;-1.118;2023-07-22T05:23:14;1.73;;;1.50;;
70667;SDS011;58242;51.250;-1.118;2023-07-22T05:25:40;1.50;;;1.50;;
70667;SDS011;58242;51.250;-1.118;2023-07-22T05:28:05;1.88;;;1.73;;
70667;SDS011;58242;51.250;-1.118;2023-07-22T05:30:30;5.35;;;1.70;;
70667;SDS011;58242;51.250;-1.118;2023-07-22T05:32:56;1.52;;;1.52;;
70667;SDS011;58242;51.250;-1.118;2023-07-22T05:35:21;1.65;;;1.55;;
70667;SDS011;58242;51.250;-1.118;2023-07-22T05:37:46;1.50;;;1.40;;
70667;SDS011;58242;51.250;-1.118;2023-07-22T05:40:12;2.13;;;1.77;;
70667;SDS011;58242;51.250;-1.118;2023-07-22T05:42:37;1.58;;;1.50;;
70667;SDS011;58242;51.250;-1.118;2023-07-22T05:45:03;1.73;;;1.52;;
70667;SDS011;58242;51.250;-1.118;2023-07-22T05:47:28;1.83;;;1.70;;
70667;SDS011;58242;51.250;-1.118;2023-07-22T05:49:54;1.30;;;1.30;;
70667;SDS011;58242;51.250;-1.118;2023-07-22T05:52:19;1.60;;;1.50;;
70667;SDS011;58242;51.250;-1.118;2023-07-22T05:54:45;2.42;;;1.70;;
70667;SDS011;58242;51.250;-1.118;2023-07-22T05:57:10;1.80;;;1.70;;
70667;SDS011;58242;51.250;-1.118;2023-07-22T05:59:35;1.80;;;1.70;;
70667;SDS011;58242;51.250;-1.118;2023-07-22T06:02:02;1.67;;;1.58;;
70667;SDS011;58242;51.250;-1.118;2023-07-22T06:04:28;2.00;;;1.38;;
70667;SDS011;58242;51.250;-1.118;2023-07-22T06:06:53;1.60;;;1.50;;
70667;SDS011;58242;51.250;-1.118;2023-07-22T06:09:18;1.63;;;1.60;;
70667;SDS011;58242;51.250;-1.118;2023-07-22T06:11:45;1.98;;;1.88;;
70667;SDS011;58242;51.250;-1.118;2023-07-22T06:14:10;1.60;;;1.60;;
70667;SDS011;58242;51.250;-1.118;2023-07-22T06:16:35;1.70;;;1.60;;
70667;SDS011;58242;51.250;-1.118;2023-07-22T06:19:01;1.77;;;1.67;;
70667;SDS011;58242;51.250;-1.118;2023-07-22T06:21:26;1.52;;;1.42;;
70667;SDS011;58242;51.250;-1.118;2023-07-22T06:23:51;1.40;;;1.40;;
70667;SDS011;58242;51.250;-1.118;2023-07-22T06:26:17;1.42;;;1.42;;
70667;SDS011;58242;51.250;-1.118;2023-07-22T06:28:42;1.90;;;1.80;;
70667;SDS011;58242;51.250;-1.118;2023-07-22T06:31:07;1.60;;;1.50;;
70667;SDS011;58242;51.250;-1.118;2023-07-22T06:33:33;1.50;;;1.40;;
70667;SDS011;58242;51.250;-1.118;2023-07-22T06:35:58;2.80;;;1.92;;
70667;SDS011;58242;51.250;-1.118;2023-07-22T06:38:24;2.10;;;2.00;;
70667;SDS011;58242;51.250;-1.118;2023-07-22T06:40:49;1.83;;;1.70;;
70667;SDS011;58242;51.250;-1.118;2023-07-22T06:43:18;1.75;;;1.60;;
70667;SDS011;58242;51.250;-1.118;2023-07-22T06:45:43;1.75;;;1.65;;
70667;SDS011;58242;51.250;-1.118;2023-07-22T06:48:08;2.83;;;1.80;;
70667;SDS011;58242;51.250;-1.118;2023-07-22T06:50:34;1.98;;;1.50;;
70667;SDS011;58242;51.250;-1.118;2023-07-22T06:52:59;1.80;;;1.70;;
70667;SDS011;58242;51.250;-1.118;2023-07-22T06:55:24;1.48;;;1.40;;
70667;SDS011;58242;51.250;-1.118;2023-07-22T06:57:49;1.73;;;1.48;;
70667;SDS011;58242;51.250;-1.118;2023-07-22T07:00:15;2.20;;;1.30;;
70667;SDS011;58242;51.250;-1.118;2023-07-22T07:02:41;1.65;;;1.55;;
70667;SDS011;58242;51.250;-1.118;2023-07-22T07:05:06;2.00;;;1.90;;
70667;SDS011;58242;51.250;-1.118;2023-07-22T07:07:31;1.80;;;1.70;;
70667;SDS011;58242;51.250;-1.118;2023-07-22T07:09:57;2.05;;;1.95;;
70667;SDS011;58242;51.250;-1.118;2023-07-22T07:12:23;1.73;;;1.63;;
70667;SDS011;58242;51.250;-1.118;2023-07-22T07:14:51;1.65;;;1.55;;
70667;SDS011;58242;51.250;-1.118;2023-07-22T07:17:17;2.00;;;1.63;;
70667;SDS011;58242;51.250;-1.118;2023-07-22T07:19:42;2.10;;;1.88;;
70667;SDS011;58242;51.250;-1.118;2023-07-22T07:22:08;1.92;;;1.83;;
70667;SDS011;58242;51.250;-1.118;2023-07-22T07:24:33;1.90;;;1.80;;
70667;SDS011;58242;51.250;-1.118;2023-07-22T07:26:58;2.95;;;2.20;;
70667;SDS011;58242;51.250;-1.118;2023-07-22T07:29:24;1.92;;;1.80;;
70667;SDS011;58242;51.250;-1.118;2023-07-22T07:31:49;2.17;;;2.00;;
70667;SDS011;58242;51.250;-1.118;2023-07-22T07:34:14;1.73;;;1.63;;
70667;SDS011;58242;51.250;-1.118;2023-07-22T07:36:40;2.15;;;1.80;;
70667;SDS011;58242;51.250;-1.118;2023-07-22T07:39:05;2.10;;;2.00;;
70667;SDS011;58242;51.250;-1.118;2023-07-22T07:41:30;2.35;;;2.25;;
70667;SDS011;58242;51.250;-1.118;2023-07-22T07:43:56;1.90;;;1.80;;
70667;SDS011;58242;51.250;-1.118;2023-07-22T07:46:22;2.25;;;2.15;;
70667;SDS011;58242;51.250;-1.118;2023-07-22T07:48:52;1.98;;;1.88;;
70667;SDS011;58242;51.250;-1.118;2023-07-22T07:51:19;3.10;;;2.53;;
70667;SDS011;58242;51.250;-1.118;2023-07-22T07:53:46;2.10;;;2.00;;
70667;SDS011;58242;51.250;-1.118;2023-07-22T07:56:12;2.13;;;2.03;;
70667;SDS011;58242;51.250;-1.118;2023-07-22T07:58:38;3.30;;;2.10;;
70667;SDS011;58242;51.250;-1.118;2023-07-22T08:01:04;1.92;;;1.83;;
70667;SDS011;58242;51.250;-1.118;2023-07-22T08:03:30;2.00;;;1.90;;
70667;SDS011;58242;51.250;-1.118;2023-07-22T08:05:56;3.22;;;2.33;;
70667;SDS011;58242;51.250;-1.118;2023-07-22T08:08:22;2.92;;;2.28;;
70667;SDS011;58242;51.250;-1.118;2023-07-22T08:10:47;2.22;;;2.13;;
70667;SDS011;58242;51.250;-1.118;2023-07-22T08:13:22;3.38;;;3.08;;
70667;SDS011;58242;51.250;-1.118;2023-07-22T08:15:48;2.65;;;2.45;;
70667;SDS011;58242;51.250;-1.118;2023-07-22T08:18:13;2.65;;;2.22;;
70667;SDS011;58242;51.250;-1.118;2023-07-22T08:20:38;2.80;;;2.60;;
70667;SDS011;58242;51.250;-1.118;2023-07-22T08:23:04;2.72;;;2.50;;
70667;SDS011;58242;51.250;-1.118;2023-07-22T08:25:29;2.40;;;2.20;;
70667;SDS011;58242;51.250;-1.118;2023-07-22T08:27:54;2.50;;;2.30;;
70667;SDS011;58242;51.250;-1.118;2023-07-22T08:30:19;2.78;;;2.45;;
70667;SDS011;58242;51.250;-1.118;2023-07-22T08:32:45;2.50;;;2.30;;
70667;SDS011;58242;51.250;-1.118;2023-07-22T08:35:10;2.78;;;2.58;;
70667;SDS011;58242;51.250;-1.118;2023-07-22T08:37:35;4.43;;;3.00;;
70667;SDS011;58242;51.250;-1.118;2023-07-22T08:40:00;2.58;;;2.47;;
70667;SDS011;58242;51.250;-1.118;2023-07-22T08:42:26;3.00;;;2.80;;
70667;SDS011;58242;51.250;-1.118;2023-07-22T08:47:24;2.70;;;2.50;;
70667;SDS011;58242;51.250;-1.118;2023-07-22T08:49:52;3.00;;;2.80;;
70667;SDS011;58242;51.250;-1.118;2023-07-22T08:52:22;3.22;;;2.95;;
70667;SDS011;58242;51.250;-1.118;2023-07-22T08:54:49;3.10;;;2.80;;
70667;SDS011;58242;51.250;-1.118;2023-07-22T08:57:14;2.83;;;2.63;;
70667;SDS011;58242;51.250;-1.118;2023-07-22T08:59:41;3.53;;;3.22;;
70667;SDS011;58242;51.250;-1.118;2023-07-22T09:02:07;2.90;;;2.30;;
70667;SDS011;58242;51.250;-1.118;2023-07-22T09:04:37;2.63;;;2.53;;
70667;SDS011;58242;51.250;-1.118;2023-07-22T09:07:02;2.60;;;2.40;;
70667;SDS011;58242;51.250;-1.118;2023-07-22T09:09:28;3.28;;;3.03;;
70667;SDS011;58242;51.250;-1.118;2023-07-22T09:11:53;3.15;;;2.95;;
70667;SDS011;58242;51.250;-1.118;2023-07-22T09:14:20;3.15;;;2.95;;
70667;SDS011;58242;51.250;-1.118;2023-07-22T09:16:47;2.88;;;2.65;;
70667;SDS011;58242;51.250;-1.118;2023-07-22T09:19:12;3.22;;;3.00;;
70667;SDS011;58242;51.250;-1.118;2023-07-22T09:21:38;3.20;;;3.00;;
70667;SDS011;58242;51.250;-1.118;2023-07-22T09:24:19;3.00;;;2.80;;
70667;SDS011;58242;51.250;-1.118;2023-07-22T09:26:46;2.90;;;2.70;;
70667;SDS011;58242;51.250;-1.118;2023-07-22T09:29:11;2.97;;;2.78;;
70667;SDS011;58242;51.250;-1.118;2023-07-22T09:31:47;2.88;;;2.67;;
70667;SDS011;58242;51.250;-1.118;2023-07-22T09:34:14;3.30;;;3.10;;
70667;SDS011;58242;51.250;-1.118;2023-07-22T09:36:52;2.88;;;2.67;;
70667;SDS011;58242;51.250;-1.118;2023-07-22T09:39:18;2.80;;;2.70;;
70667;SDS011;58242;51.250;-1.118;2023-07-22T09:41:44;3.15;;;2.95;;
70667;SDS011;58242;51.250;-1.118;2023-07-22T09:44:10;3.10;;;2.90;;
70667;SDS011;58242;51.250;-1.118;2023-07-22T09:46:38;3.00;;;2.70;;
70667;SDS011;58242;51.250;-1.118;2023-07-22T09:49:05;3.35;;;3.05;;
70667;SDS011;58242;51.250;-1.118;2023-07-22T09:51:35;3.55;;;3.28;;
70667;SDS011;58242;51.250;-1.118;2023-07-22T09:54:01;3.15;;;2.95;;
70667;SDS011;58242;51.250;-1.118;2023-07-22T09:56:28;3.17;;;2.97;;
70667;SDS011;58242;51.250;-1.118;2023-07-22T09:58:53;2.88;;;2.60;;
70667;SDS011;58242;51.250;-1.118;2023-07-22T10:01:20;2.50;;;2.40;;
70667;SDS011;58242;51.250;-1.118;2023-07-22T10:03:53;3.50;;;3.20;;
70667;SDS011;58242;51.250;-1.118;2023-07-22T10:08:48;3.33;;;3.03;;
70667;SDS011;58242;51.250;-1.118;2023-07-22T10:11:14;3.22;;;3.03;;
70667;SDS011;58242;51.250;-1.118;2023-07-22T10:13:40;3.38;;;3.08;;
70667;SDS011;58242;51.250;-1.118;2023-07-22T10:16:06;3.90;;;3.60;;
70667;SDS011;58242;51.250;-1.118;2023-07-22T10:18:32;3.15;;;2.80;;
70667;SDS011;58242;51.250;-1.118;2023-07-22T10:20:59;3.80;;;3.25;;
70667;SDS011;58242;51.250;-1.118;2023-07-22T10:23:25;5.53;;;3.35;;
70667;SDS011;58242;51.250;-1.118;2023-07-22T10:25:52;4.28;;;3.85;;
70667;SDS011;58242;51.250;-1.118;2023-07-22T10:28:19;4.65;;;3.58;;
70667;SDS011;58242;51.250;-1.118;2023-07-22T10:30:47;3.72;;;3.42;;
70667;SDS011;58242;51.250;-1.118;2023-07-22T10:33:12;3.40;;;3.20;;
70667;SDS011;58242;51.250;-1.118;2023-07-22T10:35:42;3.30;;;3.05;;
70667;SDS011;58242;51.250;-1.118;2023-07-22T10:40:50;3.30;;;3.10;;
70667;SDS011;58242;51.250;-1.118;2023-07-22T10:43:27;3.10;;;2.88;;
70667;SDS011;58242;51.250;-1.118;2023-07-22T10:45:56;3.63;;;2.85;;
70667;SDS011;58242;51.250;-1.118;2023-07-22T10:48:26;3.90;;;3.42;;
70667;SDS011;58242;51.250;-1.118;2023-07-22T10:50:54;2.97;;;2.78;;
70667;SDS011;58242;51.250;-1.118;2023-07-22T11:14:27;3.03;;;2.83;;
70667;SDS011;58242;51.250;-1.118;2023-07-22T11:16:53;2.80;;;2.60;;
70667;SDS011;58242;51.250;-1.118;2023-07-22T11:19:22;4.15;;;3.35;;
70667;SDS011;58242;51.250;-1.118;2023-07-22T11:21:51;3.00;;;2.80;;
70667;SDS011;58242;51.250;-1.118;2023-07-22T11:24:18;3.15;;;2.95;;
70667;SDS011;58242;51.250;-1.118;2023-07-22T11:26:45;2.58;;;2.38;;
70667;SDS011;58242;51.250;-1.118;2023-07-22T11:29:11;3.15;;;2.85;;
70667;SDS011;58242;51.250;-1.118;2023-07-22T11:31:38;3.90;;;3.60;;
70667;SDS011;58242;51.250;-1.118;2023-07-22T11:34:26;2.83;;;2.60;;
70667;SDS011;58242;51.250;-1.118;2023-07-22T11:36:52;2.80;;;2.50;;
70667;SDS011;58242;51.250;-1.118;2023-07-22T11:39:20;3.17;;;2.97;;
70667;SDS011;58242;51.250;-1.118;2023-07-22T11:41:46;3.33;;;2.95;;
70667;SDS011;58242;51.250;-1.118;2023-07-22T11:44:13;3.50;;;3.20;;
70667;SDS011;58242;51.250;-1.118;2023-07-22T11:49:40;4.05;;;3.50;;
70667;SDS011;58242;51.250;-1.118;2023-07-22T11:52:10;3.70;;;3.40;;
70667;SDS011;58242;51.250;-1.118;2023-07-22T11:54:37;3.22;;;3.03;;
70667;SDS011;58242;51.250;-1.118;2023-07-22T11:57:18;3.15;;;2.95;;
70667;SDS011;58242;51.250;-1.118;2023-07-22T11:59:47;3.55;;;3.08;;
70667;SDS011;58242;51.250;-1.118;2023-07-22T12:02:15;3.25;;;3.05;;
70667;SDS011;58242;51.250;-1.118;2023-07-22T12:04:57;4.60;;;3.83;;
70667;SDS011;58242;51.250;-1.118;2023-07-22T12:09:58;4.00;;;3.60;;
70667;SDS011;58242;51.250;-1.118;2023-07-22T12:12:34;3.42;;;3.20;;
70667;SDS011;58242;51.250;-1.118;2023-07-22T12:22:37;3.75;;;3.10;;
70667;SDS011;58242;51.250;-1.118;2023-07-22T12:25:02;4.05;;;3.38;;
70667;SDS011;58242;51.250;-1.118;2023-07-22T12:27:28;3.60;;;3.38;;
70667;SDS011;58242;51.250;-1.118;2023-07-22T12:29:54;3.35;;;3.05;;
70667;SDS011;58242;51.250;-1.118;2023-07-22T12:32:19;3.08;;;2.88;;
70667;SDS011;58242;51.250;-1.118;2023-07-22T12:34:44;3.83;;;3.53;;
70667;SDS011;58242;51.250;-1.118;2023-07-22T12:37:09;3.70;;;3.45;;
70667;SDS011;58242;51.250;-1.118;2023-07-22T12:39:35;3.63;;;3.33;;
70667;SDS011;58242;51.250;-1.118;2023-07-22T12:42:00;4.05;;;3.58;;
70667;SDS011;58242;51.250;-1.118;2023-07-22T12:44:26;4.55;;;4.15;;
70667;SDS011;58242;51.250;-1.118;2023-07-22T12:46:51;4.55;;;4.20;;
70667;SDS011;58242;51.250;-1.118;2023-07-22T12:49:18;4.80;;;4.10;;
70667;SDS011;58242;51.250;-1.118;2023-07-22T12:51:43;3.88;;;3.58;;
70667;SDS011;58242;51.250;-1.118;2023-07-22T12:54:09;4.80;;;4.40;;
70667;SDS011;58242;51.250;-1.118;2023-07-22T12:56:34;5.72;;;4.18;;
70667;SDS011;58242;51.250;-1.118;2023-07-22T12:58:59;3.90;;;3.45;;
70667;SDS011;58242;51.250;-1.118;2023-07-22T13:01:25;4.68;;;4.28;;
70667;SDS011;58242;51.250;-1.118;2023-07-22T13:03:50;5.05;;;4.63;;
70667;SDS011;58242;51.250;-1.118;2023-07-22T13:06:15;5.68;;;5.18;;
70667;SDS011;58242;51.250;-1.118;2023-07-22T13:08:40;5.97;;;4.78;;
70667;SDS011;58242;51.250;-1.118;2023-07-22T13:11:06;4.72;;;4.43;;
70667;SDS011;58242;51.250;-1.118;2023-07-22T13:13:31;3.83;;;3.55;;
70667;SDS011;58242;51.250;-1.118;2023-07-22T13:15:56;5.18;;;4.68;;
70667;SDS011;58242;51.250;-1.118;2023-07-22T13:18:22;5.38;;;4.88;;
70667;SDS011;58242;51.250;-1.118;2023-07-22T13:20:47;5.78;;;5.15;;
70667;SDS011;58242;51.250;-1.118;2023-07-22T13:23:12;6.43;;;4.55;;
70667;SDS011;58242;51.250;-1.118;2023-07-22T13:25:38;5.25;;;4.85;;
70667;SDS011;58242;51.250;-1.118;2023-07-22T13:28:03;5.25;;;4.80;;
70667;SDS011;58242;51.250;-1.118;2023-07-22T13:30:28;5.07;;;4.57;;
70667;SDS011;58242;51.250;-1.118;2023-07-22T13:32:54;5.10;;;4.68;;
70667;SDS011;58242;51.250;-1.118;2023-07-22T13:35:21;5.53;;;5.03;;
70667;SDS011;58242;51.250;-1.118;2023-07-22T13:37:46;4.93;;;4.53;;
70667;SDS011;58242;51.250;-1.118;2023-07-22T13:40:12;5.57;;;5.07;;
70667;SDS011;58242;51.250;-1.118;2023-07-22T13:42:37;6.30;;;5.78;;
70667;SDS011;58242;51.250;-1.118;2023-07-22T13:45:03;5.68;;;5.18;;
70667;SDS011;58242;51.250;-1.118;2023-07-22T13:47:28;5.05;;;4.65;;
70667;SDS011;58242;51.250;-1.118;2023-07-22T13:49:54;4.60;;;4.20;;
70667;SDS011;58242;51.250;-1.118;2023-07-22T13:52:19;4.72;;;4.32;;
70667;SDS011;58242;51.250;-1.118;2023-07-22T13:54:44;5.32;;;4.88;;
70667;SDS011;58242;51.250;-1.118;2023-07-22T13:57:10;5.10;;;4.60;;
70667;SDS011;58242;51.250;-1.118;2023-07-22T13:59:36;5.35;;;4.95;;
70667;SDS011;58242;51.250;-1.118;2023-07-22T14:02:01;5.85;;;5.35;;
70667;SDS011;58242;51.250;-1.118;2023-07-22T14:04:26;5.20;;;4.68;;
70667;SDS011;58242;51.250;-1.118;2023-07-22T14:06:51;5.13;;;4.65;;
70667;SDS011;58242;51.250;-1.118;2023-07-22T14:09:17;7.47;;;4.57;;
70667;SDS011;58242;51.250;-1.118;2023-07-22T14:11:42;4.18;;;3.88;;
70667;SDS011;58242;51.250;-1.118;2023-07-22T14:14:07;5.40;;;4.90;;
70667;SDS011;58242;51.250;-1.118;2023-07-22T14:16:33;5.70;;;5.30;;
70667;SDS011;58242;51.250;-1.118;2023-07-22T14:18:58;5.45;;;4.85;;
70667;SDS011;58242;51.250;-1.118;2023-07-22T14:21:24;4.30;;;3.97;;
70667;SDS011;58242;51.250;-1.118;2023-07-22T14:23:49;3.95;;;3.65;;
70667;SDS011;58242;51.250;-1.118;2023-07-22T14:26:14;4.25;;;3.95;;
70667;SDS011;58242;51.250;-1.118;2023-07-22T14:28:39;3.97;;;3.53;;
70667;SDS011;58242;51.250;-1.118;2023-07-22T14:31:05;5.13;;;4.47;;
70667;SDS011;58242;51.250;-1.118;2023-07-22T14:33:30;4.13;;;3.72;;
70667;SDS011;58242;51.250;-1.118;2023-07-22T14:35:55;3.80;;;3.50;;
70667;SDS011;58242;51.250;-1.118;2023-07-22T14:38:21;3.40;;;3.20;;
70667;SDS011;58242;51.250;-1.118;2023-07-22T14:40:46;4.55;;;4.15;;
70667;SDS011;58242;51.250;-1.118;2023-07-22T14:43:12;4.15;;;3.85;;
70667;SDS011;58242;51.250;-1.118;2023-07-22T14:45:37;5.35;;;4.85;;
70667;SDS011;58242;51.250;-1.118;2023-07-22T14:48:02;3.92;;;3.58;;
70667;SDS011;58242;51.250;-1.118;2023-07-22T14:50:27;4.50;;;4.10;;
70667;SDS011;58242;51.250;-1.118;2023-07-22T14:52:53;4.18;;;3.78;;
70667;SDS011;58242;51.250;-1.118;2023-07-22T14:55:18;4.68;;;4.13;;
70667;SDS011;58242;51.250;-1.118;2023-07-22T14:57:43;3.80;;;3.50;;
70667;SDS011;58242;51.250;-1.118;2023-07-22T15:00:10;4.22;;;3.92;;
70667;SDS011;58242;51.250;-1.118;2023-07-22T15:02:36;4.20;;;3.85;;
70667;SDS011;58242;51.250;-1.118;2023-07-22T15:05:01;3.38;;;3.17;;
70667;SDS011;58242;51.250;-1.118;2023-07-22T15:07:26;3.70;;;3.40;;
70667;SDS011;58242;51.250;-1.118;2023-07-22T15:09:53;3.55;;;3.35;;